Overview Statistics Trail Chart Weather Telemetry Raw packets
 

This is the latest recevied weather packets stored in our database for station/object HS1AXC-1. If no packets are shown the sender has not sent any weather packets the latest 10 day(s).

<< 49 50 51 52 53 54 55 >>
Time Temp. Humidity Pressure Rain* Wind** Luminosity Snow
1787882388 33.89° C 70% 1009 hPa - - 1 W/m² -
1787881766 33.89° C 69% 1009 hPa - - 2 W/m² -
1787881150 33.89° C 69% 1009 hPa - - 1 W/m² -
1787880529 33.89° C 69% 1009 hPa - - 1 W/m² -
1787879907 33.33° C 71% 1009 hPa - - 1 W/m² -
1787879284 33.33° C 74% 1009 hPa - - 0 W/m² -
1787878663 32.78° C 77% 1009 hPa - - 1 W/m² -
1787878041 33.33° C 72% 1009 hPa - - 0 W/m² -
1787877418 32.78° C 76% 1008 hPa - - 0 W/m² -
1787876796 32.78° C 73% 1008 hPa - - 0 W/m² -
1787876174 32.22° C 75% 1008 hPa - - 0 W/m² -
1787875552 32.78° C 72% 1008 hPa - - 0 W/m² -
1787874930 32.78° C 71% 1008 hPa - - 0 W/m² -
1787874203 32.22° C 72% 1008 hPa - - 0 W/m² -
1787873581 32.22° C 71% 1008 hPa - - 0 W/m² -
1787872959 32.78° C 70% 1008 hPa - - 0 W/m² -
1787872337 32.22° C 71% 1007 hPa - - 0 W/m² -
1787871714 32.22° C 71% 1007 hPa - - 0 W/m² -
1787871092 32.22° C 71% 1007 hPa - - 0 W/m² -
1787870470 32.78° C 69% 1007 hPa - - 0 W/m² -
1787869848 32.22° C 69% 1007 hPa - - 0 W/m² -
1787869071 32.78° C 66% 1008 hPa - - 0 W/m² -
1787868449 32.78° C 66% 1008 hPa - - 0 W/m² -
1787867827 32.22° C 66% 1008 hPa - - 0 W/m² -
1787867232 33.33° C 61% 1008 hPa - - 0 W/m² -

* Rain since midnight (hover to see other rain measurements)
** Current wind speed in m/s (hover to see current wind gust speed)